Pacific Explorer — MAQK9 — position and weather

sailwx.info

Track history (hours):
 
Tides and Currents Weather Stations Pressure Air Temp Water Temp Dewpoint Dewpoint Depression Visibility Wind Speed Wind Dir Waves Ship Positions

Pacific Explorer

Last reported at 2017-Dec-16 18:30 UTC. Time now 2017-Dec-17 06:28 UTC.
Position S 33°50' E 151°18'.

Length 261 m; draft 8.3 m.

Type: Passenger vessel. MMSI: 232006603.

Date/timePositionNaut miles runAvg speedWind from/ knotsBaromVisibWave heightAir tempDewpointWater temp
2017-Dec-16 18:30S 33°50' E 151°18'713.2
2017-Dec-16 18:00S 33°49' E 151°26'811.9
2017-Dec-16 17:20S 33°48' E 151°35'412.8
2017-Dec-16 17:00S 33°46' E 151°40'3313.4
2017-Dec-16 14:33S 33°34' E 152°17'114.0
2017-Dec-16 14:30S 33°34' E 152°17'713.5
2017-Dec-16 13:58S 33°31' E 152°25'613.3
2017-Dec-16 13:30S 33°28' E 152°32'912.5
2017-Dec-16 12:46S 33°20' E 152°38'413.1
2017-Dec-16 12:29S 33°17' E 152°39'1212.7
2017-Dec-16 11:33S 33°06' E 152°44'112.0
2017-Dec-16 11:30S 33°05' E 152°44'612.0
2017-Dec-16 10:57S 32°59' E 152°47'812.2
2017-Dec-16 10:18S 32°51' E 152°50'611.9
2017-Dec-16 09:48S 32°46' E 152°52'412.0
2017-Dec-16 09:30S 32°42' E 152°53'612.1
2017-Dec-16 09:00S 32°37' E 152°56'1107.7
2017-Dec-16 09:00S 32°36' E 152°54'712.8 020 / 251013.710.8 24.022.523.0
2017-Dec-16 08:27S 32°30' E 152°58'612.5
2017-Dec-16 08:00S 32°25' E 153°01'713.7
2017-Dec-16 07:29S 32°18' E 153°03'715.4
2017-Dec-16 07:00S 32°11' E 153°06'1115.5
2017-Dec-16 06:17S 32°01' E 153°10'53178.4
2017-Dec-16 06:00S 32°54' E 153°06'63124.1 030 / 251012.410.8 25.022.823.0
2017-Dec-16 05:29S 31°51' E 153°09'28 7.5
2017-Dec-16 01:44S 32°18' E 152°58'4 4.3
2017-Dec-16 00:54S 32°21' E 152°56'2 2.8
2017-Dec-16 00:21S 32°22' E 152°56'513.0
2017-Dec-16 00:00S 32°18' E 152°54'6341.4 030 / 211015.210.8 24.021.823.0
2017-Dec-15 23:58S 32°23' E 152°56'1310.7
2017-Dec-15 22:46S 32°35' E 152°49'613.5
2017-Dec-15 22:21S 32°39' E 152°45'611.5
2017-Dec-15 21:51S 32°43' E 152°40'410.9
2017-Dec-15 21:27S 32°47' E 152°37'510.9
2017-Dec-15 21:00S 32°50' E 152°33'510.8
2017-Dec-15 20:30S 32°54' E 152°29'510.1
2017-Dec-15 20:00S 32°59' E 152°26'5365.5
2017-Dec-15 20:00S 32°54' E 152°24'816.5 030 / 181013.410.8 22.021.223.0
2017-Dec-15 19:30S 32°60' E 152°30'510.6
2017-Dec-15 19:00S 32°56' E 152°35'8568.7
2017-Dec-15 19:00S 32°48' E 152°36'4 9.0 360 / 201013.110.8 22.021.223.0
2017-Dec-15 18:31S 32°52' E 152°39'510.6
2017-Dec-15 18:00S 32°48' E 152°43'510.7
2017-Dec-15 17:30S 32°44' E 152°47'510.6
2017-Dec-15 17:00S 32°40' E 152°51'510.9
2017-Dec-15 16:30S 32°35' E 152°55'912.3
2017-Dec-15 15:46S 32°27' E 152°60'513.7
2017-Dec-15 15:24S 32°22' E 153°01'613.8
2017-Dec-15 14:58S 32°17' E 153°03'613.9
2017-Dec-15 14:30S 32°10' E 153°05'2413.6
2017-Dec-15 12:43S 31°47' E 153°13'313.4
2017-Dec-15 12:30S 31°44' E 153°14'913.3
2017-Dec-15 11:51S 31°36' E 153°17'713.5
2017-Dec-15 11:21S 31°29' E 153°19'613.5
2017-Dec-15 10:52S 31°23' E 153°21'1313.2
2017-Dec-15 09:51S 31°10' E 153°26'1012.0
2017-Dec-15 09:00S 31°00' E 153°24'8 4.0 020 / 201013.710.8 25.022.023.0
2017-Dec-15 07:00S 30°54' E 153°18'6 6.0 020 / 251013.410.8 25.023.523.0
2017-Dec-15 06:00S 31°00' E 153°18'1212.0 020 / 261011.410.8 24.022.523.0
2017-Dec-15 05:00S 31°12' E 153°18'26 6.5 020 / 271011.410.8 24.022.523.0
2017-Dec-15 01:00S 31°36' E 153°06'32 7.9 020 / 271011.410.8 24.022.523.0
2017-Dec-14 21:00S 32°06' E 152°54'6 6.0 340 / 331012.410.8 23.020.723.0
2017-Dec-14 20:00S 32°12' E 152°54'2211.9 350 / 351011.810.8 22.020.523.0
2017-Dec-14 18:09S 32°34' E 152°50'2 9.9
2017-Dec-14 18:00S 32°35' E 152°49'510.4
2017-Dec-14 17:30S 32°39' E 152°45'5 9.9
2017-Dec-14 17:00S 32°42' E 152°41'5 9.5
2017-Dec-14 16:28S 32°46' E 152°37'4 9.4
2017-Dec-14 16:00S 32°50' E 152°34'9 9.1
2017-Dec-14 15:00S 32°57' E 152°27'4 8.8
2017-Dec-14 14:30S 33°00' E 152°24'5 9.0
2017-Dec-14 14:00S 33°03' E 152°20'5 9.1
2017-Dec-14 13:30S 33°07' E 152°16'5 9.2
2017-Dec-14 13:00S 33°10' E 152°13'5 9.0
2017-Dec-14 12:30S 33°14' E 152°09'4 9.0
2017-Dec-14 12:00S 33°17' E 152°06'4 8.9
2017-Dec-14 11:30S 33°20' E 152°02'4 8.9
2017-Dec-14 11:00S 33°24' E 151°59'4 8.8
2017-Dec-14 10:30S 33°27' E 151°55'4 8.6
2017-Dec-14 10:00S 33°30' E 151°52'4 8.7
2017-Dec-14 09:30S 33°33' E 151°48'4 8.5
2017-Dec-14 09:00S 33°36' E 151°44'4 8.5
2017-Dec-14 08:30S 33°39' E 151°40'4 8.4
2017-Dec-14 08:00S 33°42' E 151°37'4 8.8
2017-Dec-14 07:30S 33°44' E 151°32'5 9.5
2017-Dec-14 07:00S 33°47' E 151°27'5 9.7
2017-Dec-14 06:30S 33°49' E 151°22'4 7.5
2017-Dec-14 06:00S 33°50' E 151°18'6 0.5
2017-Dec-13 19:32S 33°52' E 151°12'1 1.4
2017-Dec-13 19:11S 33°51' E 151°12'1 5.3
2017-Dec-13 19:00S 33°51' E 151°13'4 8.9
2017-Dec-13 18:30S 33°50' E 151°18'611.6
2017-Dec-13 18:00S 33°50' E 151°25'713.1
2017-Dec-13 17:30S 33°46' E 151°31'713.8
2017-Dec-13 17:00S 33°42' E 151°38'713.4
2017-Dec-13 16:30S 33°38' E 151°44'713.5
2017-Dec-13 16:00S 33°33' E 151°51'713.6
2017-Dec-13 15:30S 33°29' E 151°57'713.9
2017-Dec-13 14:59S 33°25' E 152°04'714.2
2017-Dec-13 14:30S 33°21' E 152°11'815.3
2017-Dec-13 14:01S 33°16' E 152°18'918.2
2017-Dec-13 13:30S 33°10' E 152°26'917.7
2017-Dec-13 13:00S 33°05' E 152°35'918.4
2017-Dec-13 12:30S 32°59' E 152°43'1118.1
2017-Dec-13 11:53S 32°52' E 152°54'1018.1
2017-Dec-13 11:21S 32°46' E 153°03'718.9
2017-Dec-13 11:00S 32°42' E 153°09'1019.5
2017-Dec-13 10:30S 32°36' E 153°18'1019.4
2017-Dec-13 10:00S 32°30' E 153°27'1019.3
2017-Dec-13 09:30S 32°24' E 153°37'919.3
2017-Dec-13 09:00S 32°19' E 153°45'  
2017-Dec-10 18:42S 22°28' E 166°57'  
2017-Dec-07 09:39S 22°24' E 166°45'317.2
2017-Dec-07 09:30S 22°23' E 166°42'817.2
2017-Dec-07 09:01S 22°22' E 166°33'816.3
2017-Dec-07 08:31S 22°19' E 166°25'3 5.4
2017-Dec-07 08:00S 22°16' E 166°26'0 0.0
2017-Dec-07 07:30S 22°16' E 166°26'0 0.0
2017-Dec-07 07:00S 22°16' E 166°26'0 0.0
2017-Dec-07 06:30S 22°16' E 166°26'0 0.0
2017-Dec-07 06:00S 22°16' E 166°26'0 0.0
2017-Dec-07 05:30S 22°16' E 166°26'0 0.0
2017-Dec-07 04:59S 22°16' E 166°26'0 0.0
2017-Dec-07 04:29S 22°16' E 166°26'0 0.0
2017-Dec-07 03:59S 22°16' E 166°26'0 0.0
2017-Dec-07 03:29S 22°16' E 166°26'0 0.0
2017-Dec-07 02:58S 22°16' E 166°26'0 0.0
2017-Dec-07 02:25S 22°16' E 166°26'0 0.0
2017-Dec-07 01:58S 22°16' E 166°26'0 0.0
2017-Dec-07 01:28S 22°16' E 166°26'0 0.0
2017-Dec-07 00:58S 22°16' E 166°26'0 0.0
2017-Dec-07 00:30S 22°16' E 166°26'0 0.0
2017-Dec-07 00:00S 22°16' E 166°26'3 5.3
2017-Dec-06 23:30S 22°18' E 166°24'815.7
2017-Dec-06 23:00S 22°21' E 166°16'612.2
2017-Dec-06 22:30S 22°25' E 166°11'816.0
2017-Dec-06 22:00S 22°30' E 166°04'917.5
2017-Dec-06 21:29S 22°35' E 165°56'817.3
2017-Dec-06 21:01S 22°40' E 165°49'  
Track history (hours):
 
Tides and Currents Weather Stations Pressure Air Temp Water Temp Dewpoint Dewpoint Depression Visibility Wind Speed Wind Dir Waves Ship Positions

Pacific Explorer

Last reported at 2017-Dec-16 18:30 UTC. Time now 2017-Dec-17 06:28 UTC.
Position S 33°50' E 151°18'.

Length 261 m; draft 8.3 m.

Type: Passenger vessel. MMSI: 232006603.

Date/timePositionNaut miles runAvg speedWind from/ knotsBaromVisibWave heightAir tempDewpointWater temp
2017-Dec-16 18:30S 33°50' E 151°18'713.2
2017-Dec-16 18:00S 33°49' E 151°26'811.9
2017-Dec-16 17:20S 33°48' E 151°35'412.8
2017-Dec-16 17:00S 33°46' E 151°40'3313.4
2017-Dec-16 14:33S 33°34' E 152°17'114.0
2017-Dec-16 14:30S 33°34' E 152°17'713.5
2017-Dec-16 13:58S 33°31' E 152°25'613.3
2017-Dec-16 13:30S 33°28' E 152°32'912.5
2017-Dec-16 12:46S 33°20' E 152°38'413.1
2017-Dec-16 12:29S 33°17' E 152°39'1212.7
2017-Dec-16 11:33S 33°06' E 152°44'112.0
2017-Dec-16 11:30S 33°05' E 152°44'612.0
2017-Dec-16 10:57S 32°59' E 152°47'812.2
2017-Dec-16 10:18S 32°51' E 152°50'611.9
2017-Dec-16 09:48S 32°46' E 152°52'412.0
2017-Dec-16 09:30S 32°42' E 152°53'612.1
2017-Dec-16 09:00S 32°37' E 152°56'1107.7
2017-Dec-16 09:00S 32°36' E 152°54'712.8 020 / 251013.710.8 24.022.523.0
2017-Dec-16 08:27S 32°30' E 152°58'612.5
2017-Dec-16 08:00S 32°25' E 153°01'713.7
2017-Dec-16 07:29S 32°18' E 153°03'715.4
2017-Dec-16 07:00S 32°11' E 153°06'1115.5
2017-Dec-16 06:17S 32°01' E 153°10'53178.4
2017-Dec-16 06:00S 32°54' E 153°06'63124.1 030 / 251012.410.8 25.022.823.0
2017-Dec-16 05:29S 31°51' E 153°09'28 7.5
2017-Dec-16 01:44S 32°18' E 152°58'4 4.3
2017-Dec-16 00:54S 32°21' E 152°56'2 2.8
2017-Dec-16 00:21S 32°22' E 152°56'513.0
2017-Dec-16 00:00S 32°18' E 152°54'6341.4 030 / 211015.210.8 24.021.823.0
2017-Dec-15 23:58S 32°23' E 152°56'1310.7
2017-Dec-15 22:46S 32°35' E 152°49'613.5
2017-Dec-15 22:21S 32°39' E 152°45'611.5
2017-Dec-15 21:51S 32°43' E 152°40'410.9
2017-Dec-15 21:27S 32°47' E 152°37'510.9
2017-Dec-15 21:00S 32°50' E 152°33'510.8
2017-Dec-15 20:30S 32°54' E 152°29'510.1
2017-Dec-15 20:00S 32°59' E 152°26'5365.5
2017-Dec-15 20:00S 32°54' E 152°24'816.5 030 / 181013.410.8 22.021.223.0
2017-Dec-15 19:30S 32°60' E 152°30'510.6
2017-Dec-15 19:00S 32°56' E 152°35'8568.7
2017-Dec-15 19:00S 32°48' E 152°36'4 9.0 360 / 201013.110.8 22.021.223.0
2017-Dec-15 18:31S 32°52' E 152°39'510.6
2017-Dec-15 18:00S 32°48' E 152°43'510.7
2017-Dec-15 17:30S 32°44' E 152°47'510.6
2017-Dec-15 17:00S 32°40' E 152°51'510.9
2017-Dec-15 16:30S 32°35' E 152°55'912.3
2017-Dec-15 15:46S 32°27' E 152°60'513.7
2017-Dec-15 15:24S 32°22' E 153°01'613.8
2017-Dec-15 14:58S 32°17' E 153°03'613.9
2017-Dec-15 14:30S 32°10' E 153°05'2413.6
2017-Dec-15 12:43S 31°47' E 153°13'313.4
2017-Dec-15 12:30S 31°44' E 153°14'913.3
2017-Dec-15 11:51S 31°36' E 153°17'713.5
2017-Dec-15 11:21S 31°29' E 153°19'613.5
2017-Dec-15 10:52S 31°23' E 153°21'1313.2
2017-Dec-15 09:51S 31°10' E 153°26'1012.0
2017-Dec-15 09:00S 31°00' E 153°24'8 4.0 020 / 201013.710.8 25.022.023.0
2017-Dec-15 07:00S 30°54' E 153°18'6 6.0 020 / 251013.410.8 25.023.523.0
2017-Dec-15 06:00S 31°00' E 153°18'1212.0 020 / 261011.410.8 24.022.523.0
2017-Dec-15 05:00S 31°12' E 153°18'26 6.5 020 / 271011.410.8 24.022.523.0
2017-Dec-15 01:00S 31°36' E 153°06'32 7.9 020 / 271011.410.8 24.022.523.0
2017-Dec-14 21:00S 32°06' E 152°54'6 6.0 340 / 331012.410.8 23.020.723.0
2017-Dec-14 20:00S 32°12' E 152°54'2211.9 350 / 351011.810.8 22.020.523.0
2017-Dec-14 18:09S 32°34' E 152°50'2 9.9
2017-Dec-14 18:00S 32°35' E 152°49'510.4
2017-Dec-14 17:30S 32°39' E 152°45'5 9.9
2017-Dec-14 17:00S 32°42' E 152°41'5 9.5
2017-Dec-14 16:28S 32°46' E 152°37'4 9.4
2017-Dec-14 16:00S 32°50' E 152°34'9 9.1
2017-Dec-14 15:00S 32°57' E 152°27'4 8.8
2017-Dec-14 14:30S 33°00' E 152°24'5 9.0
2017-Dec-14 14:00S 33°03' E 152°20'5 9.1
2017-Dec-14 13:30S 33°07' E 152°16'5 9.2
2017-Dec-14 13:00S 33°10' E 152°13'5 9.0
2017-Dec-14 12:30S 33°14' E 152°09'4 9.0
2017-Dec-14 12:00S 33°17' E 152°06'4 8.9
2017-Dec-14 11:30S 33°20' E 152°02'4 8.9
2017-Dec-14 11:00S 33°24' E 151°59'4 8.8
2017-Dec-14 10:30S 33°27' E 151°55'4 8.6
2017-Dec-14 10:00S 33°30' E 151°52'4 8.7
2017-Dec-14 09:30S 33°33' E 151°48'4 8.5
2017-Dec-14 09:00S 33°36' E 151°44'4 8.5
2017-Dec-14 08:30S 33°39' E 151°40'4 8.4
2017-Dec-14 08:00S 33°42' E 151°37'4 8.8
2017-Dec-14 07:30S 33°44' E 151°32'5 9.5
2017-Dec-14 07:00S 33°47' E 151°27'5 9.7
2017-Dec-14 06:30S 33°49' E 151°22'4 7.5
2017-Dec-14 06:00S 33°50' E 151°18'6 0.5
2017-Dec-13 19:32S 33°52' E 151°12'1 1.4
2017-Dec-13 19:11S 33°51' E 151°12'1 5.3
2017-Dec-13 19:00S 33°51' E 151°13'4 8.9
2017-Dec-13 18:30S 33°50' E 151°18'611.6
2017-Dec-13 18:00S 33°50' E 151°25'713.1
2017-Dec-13 17:30S 33°46' E 151°31'713.8
2017-Dec-13 17:00S 33°42' E 151°38'713.4
2017-Dec-13 16:30S 33°38' E 151°44'713.5
2017-Dec-13 16:00S 33°33' E 151°51'713.6
2017-Dec-13 15:30S 33°29' E 151°57'713.9
2017-Dec-13 14:59S 33°25' E 152°04'714.2
2017-Dec-13 14:30S 33°21' E 152°11'815.3
2017-Dec-13 14:01S 33°16' E 152°18'918.2
2017-Dec-13 13:30S 33°10' E 152°26'917.7
2017-Dec-13 13:00S 33°05' E 152°35'918.4
2017-Dec-13 12:30S 32°59' E 152°43'1118.1
2017-Dec-13 11:53S 32°52' E 152°54'1018.1
2017-Dec-13 11:21S 32°46' E 153°03'718.9
2017-Dec-13 11:00S 32°42' E 153°09'1019.5
2017-Dec-13 10:30S 32°36' E 153°18'1019.4
2017-Dec-13 10:00S 32°30' E 153°27'1019.3
2017-Dec-13 09:30S 32°24' E 153°37'919.3
2017-Dec-13 09:00S 32°19' E 153°45'  
2017-Dec-10 18:42S 22°28' E 166°57'  
2017-Dec-07 09:39S 22°24' E 166°45'317.2
2017-Dec-07 09:30S 22°23' E 166°42'817.2
2017-Dec-07 09:01S 22°22' E 166°33'816.3
2017-Dec-07 08:31S 22°19' E 166°25'3 5.4
2017-Dec-07 08:00S 22°16' E 166°26'0 0.0
2017-Dec-07 07:30S 22°16' E 166°26'0 0.0
2017-Dec-07 07:00S 22°16' E 166°26'0 0.0
2017-Dec-07 06:30S 22°16' E 166°26'0 0.0
2017-Dec-07 06:00S 22°16' E 166°26'0 0.0
2017-Dec-07 05:30S 22°16' E 166°26'0 0.0
2017-Dec-07 04:59S 22°16' E 166°26'0 0.0
2017-Dec-07 04:29S 22°16' E 166°26'0 0.0
2017-Dec-07 03:59S 22°16' E 166°26'0 0.0
2017-Dec-07 03:29S 22°16' E 166°26'0 0.0
2017-Dec-07 02:58S 22°16' E 166°26'0 0.0
2017-Dec-07 02:25S 22°16' E 166°26'0 0.0
2017-Dec-07 01:58S 22°16' E 166°26'0 0.0
2017-Dec-07 01:28S 22°16' E 166°26'0 0.0
2017-Dec-07 00:58S 22°16' E 166°26'0 0.0
2017-Dec-07 00:30S 22°16' E 166°26'0 0.0
2017-Dec-07 00:00S 22°16' E 166°26'3 5.3
2017-Dec-06 23:30S 22°18' E 166°24'815.7
2017-Dec-06 23:00S 22°21' E 166°16'612.2
2017-Dec-06 22:30S 22°25' E 166°11'816.0
2017-Dec-06 22:00S 22°30' E 166°04'917.5
2017-Dec-06 21:29S 22°35' E 165°56'817.3
2017-Dec-06 21:01S 22°40' E 165°49'  

Dump ship's entire track history